Mechanicsvlle, Virginia
Current Conditions -  °F | °C
As of 6:54 PM on Thursday 18 Dec 2014 (Local Time) from KRIC Reporting Station
Broken Clouds Broken Clouds  
Wind Chill: 38°   Ceiling: 30000
Heat Index: 38°   Visibility: 10mi
Dew Point: 22°   Wind: 0mph
Humidity: 53%   Direction: NA
Pressure: 30.11"   Gusts: NA
Location:  37.634°N, 77.2585°W
Report Text: KRIC 182354Z 00000KT 10SM SCT120 BKN300 03/M06 A3011 RMK AO2 SLP201 T00331056 10083 20028 53006
Loading
Personal Weather Stations






























Interactive Weather Map New forecast layout! Learn more

10-Day Weather Forecast

Advertisements
Track Severe Weather on mobile